createdAt,value
2023-04-25T00:02:25.980Z,63.51
2023-04-25T00:06:27.629Z,63.64
2023-04-25T00:10:29.437Z,64.04
2023-04-25T00:14:31.217Z,64.38
2023-04-25T00:18:34.119Z,64.29
2023-04-25T00:22:38.025Z,64.20
2023-04-25T00:26:39.676Z,63.80
2023-04-25T00:30:42.088Z,64.24
2023-04-25T00:34:43.731Z,64.31
2023-04-25T00:38:45.182Z,64.49
2023-04-25T00:42:48.097Z,64.49
2023-04-25T00:46:53.025Z,64.62
2023-04-25T00:50:57.921Z,65.08
2023-04-25T00:55:00.323Z,65.36
2023-04-25T00:59:01.907Z,65.88
2023-04-25T01:03:04.823Z,66.10
2023-04-25T01:07:06.448Z,66.53
2023-04-25T01:11:58.550Z,66.91
2023-04-25T01:16:50.196Z,67.32
2023-04-25T01:20:53.198Z,67.45
2023-04-25T01:24:56.664Z,67.90
2023-04-25T01:28:59.051Z,68.07
2023-04-25T01:33:01.906Z,68.13
2023-04-25T01:37:04.001Z,68.37
2023-04-25T01:41:39.691Z,68.19
2023-04-25T01:46:32.485Z,68.08
2023-04-25T01:50:34.638Z,67.88
2023-04-25T01:54:36.248Z,67.77
2023-04-25T01:58:38.545Z,67.40
2023-04-25T02:03:02.592Z,67.38
2023-04-25T02:07:08.645Z,67.68
2023-04-25T02:11:22.094Z,67.16
2023-04-25T02:15:44.189Z,67.37
2023-04-25T02:19:51.096Z,67.46
2023-04-25T02:23:53.194Z,67.21
2023-04-25T02:27:55.580Z,67.51
2023-04-25T02:31:57.522Z,67.69
2023-04-25T02:35:59.096Z,67.51
2023-04-25T02:40:01.760Z,67.70
2023-04-25T02:44:37.466Z,67.84
2023-04-25T02:54:50.661Z,68.58
2023-04-25T02:59:42.149Z,68.77
2023-04-25T03:03:44.003Z,69.25
2023-04-25T03:07:46.602Z,69.36
2023-04-25T03:12:38.039Z,69.52
2023-04-25T03:17:30.084Z,70.05
2023-04-25T03:21:34.104Z,69.80
2023-04-25T03:25:35.853Z,70.27
2023-04-25T03:29:37.351Z,70.43
2023-04-25T03:33:40.096Z,70.68
2023-04-25T03:37:41.987Z,70.55
2023-04-25T03:42:18.523Z,70.62
2023-04-25T03:46:20.427Z,70.63
2023-04-25T03:50:23.431Z,70.60
2023-04-25T03:54:25.232Z,70.61
2023-04-25T03:58:34.166Z,70.62
2023-04-25T04:02:37.460Z,70.56
2023-04-25T04:06:39.224Z,70.65
2023-04-25T04:10:48.614Z,70.91
2023-04-25T04:15:24.551Z,70.97
2023-04-25T04:20:16.265Z,71.01
2023-04-25T04:24:47.171Z,70.79
2023-04-25T04:29:11.641Z,70.72
2023-04-25T04:44:56.302Z,68.37
2023-04-25T04:49:01.107Z,68.27
2023-04-25T04:53:37.894Z,67.48
2023-04-25T04:58:25.251Z,66.75
2023-04-25T05:02:41.224Z,66.77
2023-04-25T05:07:27.115Z,66.58
2023-04-25T05:12:02.081Z,66.08
2023-04-25T05:16:25.442Z,65.58
2023-04-25T05:20:51.335Z,65.19
2023-04-25T05:25:18.594Z,63.89
2023-04-25T05:29:22.797Z,63.54
2023-04-25T05:34:04.130Z,62.42
2023-04-25T05:39:05.661Z,62.20
2023-04-25T05:43:25.773Z,60.62
2023-04-25T05:47:44.621Z,58.90
2023-04-25T05:52:01.530Z,58.46
2023-04-25T05:56:21.470Z,57.33
2023-04-25T06:01:16.997Z,56.61
2023-04-25T06:06:16.218Z,56.26
2023-04-25T06:10:18.382Z,55.71
2023-04-25T06:14:19.999Z,54.46
2023-04-25T06:19:15.188Z,54.31
2023-04-25T06:23:16.965Z,53.37
2023-04-25T06:27:33.199Z,52.69
2023-04-25T06:31:35.422Z,52.03
2023-04-25T06:35:37.099Z,53.06
2023-04-25T06:39:42.246Z,51.30
2023-04-25T06:43:43.705Z,50.21
2023-04-25T06:48:05.380Z,49.71
2023-04-25T06:52:09.277Z,48.80
2023-04-25T06:56:11.140Z,47.99
2023-04-25T07:00:31.189Z,48.21
2023-04-25T07:05:23.138Z,46.97
2023-04-25T07:10:15.046Z,47.17
2023-04-25T07:14:16.763Z,46.74
2023-04-25T07:18:18.339Z,46.61
2023-04-25T07:22:20.217Z,46.34
2023-04-25T07:26:21.942Z,44.20
2023-04-25T07:30:41.964Z,43.01
2023-04-25T07:34:43.569Z,43.18
2023-04-25T07:38:45.518Z,42.21
2023-04-25T07:43:21.200Z,42.40
2023-04-25T07:47:33.490Z,42.09
2023-04-25T07:51:57.146Z,40.30
2023-04-25T08:02:02.170Z,35.39
2023-04-25T08:06:07.701Z,35.54
2023-04-25T08:10:16.740Z,36.50
2023-04-25T08:14:19.080Z,34.23
2023-04-25T08:19:11.968Z,33.96
2023-04-25T08:28:48.932Z,36.92
2023-04-25T08:32:50.849Z,37.75
2023-04-25T08:37:15.891Z,33.84
2023-04-25T08:41:28.965Z,35.21
2023-04-25T08:45:32.975Z,36.99
2023-04-25T08:49:35.937Z,42.41
2023-04-25T08:53:40.800Z,41.07
2023-04-25T08:58:02.867Z,41.54
2023-04-25T09:02:58.418Z,41.29
2023-04-25T09:07:40.364Z,41.66
2023-04-25T09:12:45.125Z,40.08
2023-04-25T09:17:23.027Z,37.59
2023-04-25T09:21:40.654Z,38.22
2023-04-25T09:25:43.919Z,39.49
2023-04-25T09:29:45.993Z,40.13
2023-04-25T09:33:48.943Z,42.50
2023-04-25T09:37:53.377Z,46.14
2023-04-25T09:42:16.858Z,44.60
2023-04-25T09:46:22.139Z,43.36
2023-04-25T09:50:28.167Z,45.06
2023-04-25T09:54:38.710Z,45.95
2023-04-25T09:58:54.707Z,45.99
2023-04-25T10:02:58.473Z,46.65
2023-04-25T10:07:27.036Z,46.37
2023-04-25T10:11:29.446Z,45.77
2023-04-25T10:15:33.985Z,44.42
2023-04-25T10:19:35.929Z,40.99
2023-04-25T10:23:40.982Z,38.50
2023-04-25T10:27:42.556Z,38.30
2023-04-25T10:31:48.320Z,39.40
2023-04-25T10:35:50.055Z,40.65
2023-04-25T10:39:51.588Z,41.66
2023-04-25T10:44:02.355Z,40.27
2023-04-25T10:48:04.689Z,39.55
2023-04-25T10:52:15.692Z,39.06
2023-04-25T10:56:22.117Z,40.01
2023-04-25T11:00:38.315Z,42.06
2023-04-25T11:04:46.486Z,43.83
2023-04-25T11:08:51.328Z,46.90
2023-04-25T11:12:53.119Z,47.95
2023-04-25T11:17:47.407Z,48.96
2023-04-25T11:22:39.035Z,48.16
2023-04-25T11:26:47.358Z,48.88
2023-04-25T11:30:51.260Z,48.72
2023-04-25T11:34:53.325Z,49.31
2023-04-25T11:38:55.046Z,46.79
2023-04-25T11:43:46.880Z,44.62
2023-04-25T11:48:39.304Z,44.25
2023-04-25T11:52:48.142Z,43.22
2023-04-25T11:56:49.680Z,41.54
2023-04-25T12:01:11.492Z,39.46
2023-04-25T12:05:31.014Z,39.35
2023-04-25T12:09:35.795Z,40.01
2023-04-25T12:13:38.284Z,40.61
2023-04-25T12:17:40.746Z,38.77
2023-04-25T12:21:57.216Z,40.70
2023-04-25T12:26:08.120Z,41.67
2023-04-25T12:30:47.230Z,44.28
2023-04-25T12:34:52.982Z,42.24
2023-04-25T12:38:54.657Z,40.15
2023-04-25T12:42:56.206Z,38.87
2023-04-25T12:47:01.267Z,32.66
2023-04-25T12:51:25.839Z,27.50
2023-04-25T12:55:27.815Z,30.63
2023-04-25T12:59:29.413Z,33.31
2023-04-25T13:03:35.309Z,35.89
2023-04-25T13:07:37.266Z,37.94
2023-04-25T13:11:44.947Z,38.29
2023-04-25T13:15:47.088Z,39.50
2023-04-25T13:19:54.931Z,41.13
2023-04-25T13:23:56.432Z,42.79
2023-04-25T13:33:51.419Z,47.73
2023-04-25T13:38:09.799Z,48.79
2023-04-25T13:42:31.331Z,48.38
2023-04-25T13:46:45.438Z,48.74
2023-04-25T13:50:49.388Z,46.83
2023-04-25T13:54:55.294Z,46.64
2023-04-25T13:59:05.045Z,47.41
2023-04-25T14:03:08.867Z,46.35
2023-04-25T14:08:02.548Z,46.06
2023-04-25T14:12:29.119Z,45.59
2023-04-25T14:16:38.276Z,45.81
2023-04-25T14:20:40.966Z,45.68
2023-04-25T14:24:42.938Z,45.20
2023-04-25T14:34:44.254Z,42.93
2023-04-25T14:38:45.775Z,41.13
2023-04-25T14:42:47.285Z,39.82
2023-04-25T14:46:48.891Z,37.96
2023-04-25T14:50:50.489Z,39.00
2023-04-25T14:54:52.032Z,41.80
2023-04-25T14:59:44.045Z,40.32
2023-04-25T15:04:13.404Z,41.56
2023-04-25T15:08:15.004Z,43.16
2023-04-25T15:13:07.085Z,40.67
2023-04-25T15:17:08.859Z,40.88
2023-04-25T15:21:10.519Z,40.34
2023-04-25T15:25:12.731Z,39.09
2023-04-25T15:29:14.213Z,41.20
2023-04-25T15:33:16.176Z,40.62
2023-04-25T15:37:19.113Z,41.92
2023-04-25T15:41:21.118Z,40.89
2023-04-25T15:45:56.708Z,41.54
2023-04-25T15:50:48.235Z,43.01
2023-04-25T15:54:50.270Z,42.55
2023-04-25T15:59:25.638Z,42.37
2023-04-25T16:04:17.571Z,44.17
2023-04-25T16:08:22.494Z,42.20
2023-04-25T16:12:24.183Z,42.94
2023-04-25T16:16:26.390Z,42.40
2023-04-25T16:20:28.044Z,42.07
2023-04-25T16:24:29.840Z,41.68
2023-04-25T16:28:32.012Z,41.60
2023-04-25T16:38:33.549Z,40.62
2023-04-25T16:42:36.484Z,40.08
2023-04-25T16:46:39.854Z,39.80
2023-04-25T16:50:41.485Z,40.13
2023-04-25T16:55:10.010Z,39.24
2023-04-25T16:59:46.825Z,38.55
2023-04-25T17:03:51.056Z,37.69
2023-04-25T17:07:53.919Z,39.30
2023-04-25T17:11:58.744Z,39.95
2023-04-25T17:16:16.809Z,40.58
2023-04-25T17:20:18.446Z,40.59
2023-04-25T17:24:21.805Z,41.91
2023-04-25T17:28:23.701Z,40.46
2023-04-25T17:32:59.840Z,41.40
2023-04-25T17:37:54.019Z,41.45
2023-04-25T17:42:47.149Z,42.46
2023-04-25T17:46:48.888Z,43.06
2023-04-25T17:50:51.702Z,43.53
2023-04-25T17:55:18.397Z,43.39
2023-04-25T17:59:59.767Z,43.27
2023-04-25T18:04:10.806Z,44.81
2023-04-25T18:08:16.202Z,44.81
2023-04-25T18:13:09.356Z,43.93
2023-04-25T18:18:03.093Z,44.71
2023-04-25T18:22:05.081Z,45.01
2023-04-25T18:26:06.593Z,44.52
2023-04-25T18:30:10.801Z,45.09
2023-04-25T18:35:00.798Z,44.93
2023-04-25T18:39:27.963Z,45.99
2023-04-25T18:43:29.569Z,46.86
2023-04-25T18:47:34.166Z,46.99
2023-04-25T18:51:36.947Z,47.63
2023-04-25T18:55:58.755Z,47.56
2023-04-25T19:00:22.974Z,48.05
2023-04-25T19:04:42.703Z,48.91
2023-04-25T19:08:44.249Z,49.77
2023-04-25T19:12:49.807Z,49.65
2023-04-25T19:16:53.520Z,50.44
2023-04-25T19:20:56.330Z,50.33
2023-04-25T19:25:09.760Z,51.59
2023-04-25T19:29:30.569Z,51.31
2023-04-25T19:33:32.638Z,51.70
2023-04-25T19:37:34.319Z,52.19
2023-04-25T19:41:38.202Z,52.57
2023-04-25T19:45:45.354Z,52.59
2023-04-25T19:49:47.337Z,52.64
2023-04-25T19:54:09.631Z,52.93
2023-04-25T19:58:11.514Z,53.72
2023-04-25T20:02:33.120Z,53.90
2023-04-25T20:06:34.750Z,53.77
2023-04-25T20:11:12.030Z,54.28
2023-04-25T20:15:45.116Z,54.46
2023-04-25T20:20:02.048Z,55.86
2023-04-25T20:24:07.864Z,54.83
2023-04-25T20:28:35.552Z,54.49
2023-04-25T20:32:57.105Z,55.05
2023-04-25T20:37:06.088Z,55.38
2023-04-25T20:41:35.587Z,54.88
2023-04-25T20:46:31.905Z,55.28
2023-04-25T20:50:34.536Z,55.95
2023-04-25T20:55:05.266Z,56.09
2023-04-25T20:59:40.957Z,55.78
2023-04-25T21:04:32.906Z,56.10
2023-04-25T21:09:39.516Z,56.26
2023-04-25T21:13:41.320Z,56.03
2023-04-25T21:23:36.403Z,55.96
2023-04-25T21:27:37.914Z,56.02
2023-04-25T21:31:39.775Z,55.70
2023-04-25T21:35:42.065Z,55.79
2023-04-25T21:39:43.715Z,55.93
2023-04-25T21:43:45.283Z,56.70
2023-04-25T21:47:48.131Z,56.50
2023-04-25T21:58:17.517Z,56.26
2023-04-25T22:02:41.687Z,56.38
2023-04-25T22:06:43.294Z,55.93
2023-04-25T22:10:49.163Z,57.15
2023-04-25T22:14:50.788Z,55.61
2023-04-25T22:18:56.219Z,55.39
2023-04-25T22:22:58.457Z,55.02
2023-04-25T22:27:19.950Z,57.80
2023-04-25T22:31:21.638Z,56.00
2023-04-25T22:35:33.443Z,56.18
2023-04-25T22:39:35.050Z,56.71
2023-04-25T22:43:39.832Z,57.99
2023-04-25T22:47:41.917Z,57.22
2023-04-25T22:51:44.054Z,57.81
2023-04-25T22:56:35.759Z,57.67
2023-04-25T23:01:31.170Z,58.25
2023-04-25T23:05:47.383Z,59.51
2023-04-25T23:09:50.861Z,60.45
2023-04-25T23:14:12.314Z,60.84
2023-04-25T23:18:14.466Z,61.00
2023-04-25T23:22:16.300Z,61.31
2023-04-25T23:26:32.724Z,61.42
2023-04-25T23:30:34.309Z,61.83
2023-04-25T23:34:36.549Z,61.89
2023-04-25T23:38:38.106Z,61.92
2023-04-25T23:42:43.870Z,62.58
2023-04-25T23:46:46.252Z,60.86
2023-04-25T23:50:47.927Z,62.39
2023-04-25T23:54:51.062Z,60.91
2023-04-25T23:58:53.236Z,61.52
